createdAt,value
2018-12-26T00:02:36.213Z,45.65
2018-12-26T00:05:17.382Z,48.48
2018-12-26T00:07:59.968Z,42.57
2018-12-26T00:10:44.680Z,41.13
2018-12-26T00:13:22.470Z,45.50
2018-12-26T00:16:13.627Z,49.27
2018-12-26T00:18:48.958Z,44.87
2018-12-26T00:21:27.279Z,42.47
2018-12-26T00:24:06.196Z,41.00
2018-12-26T00:26:50.186Z,44.27
2018-12-26T00:29:31.265Z,44.05
2018-12-26T00:32:17.038Z,44.10
2018-12-26T00:34:58.522Z,44.13
2018-12-26T00:37:41.918Z,41.77
2018-12-26T00:40:24.762Z,46.37
2018-12-26T00:43:10.848Z,45.07
2018-12-26T00:46:01.513Z,43.23
2018-12-26T00:48:42.606Z,42.43
2018-12-26T00:51:29.377Z,42.23
2018-12-26T00:54:09.024Z,45.63
2018-12-26T00:56:50.469Z,43.50
2018-12-26T00:59:35.445Z,44.63
2018-12-26T01:02:19.548Z,43.06
2018-12-26T01:05:01.248Z,45.60
2018-12-26T01:07:46.412Z,39.83
2018-12-26T01:10:33.258Z,49.83
2018-12-26T01:13:12.573Z,43.40
2018-12-26T01:15:54.049Z,45.23
2018-12-26T01:18:36.015Z,46.28
2018-12-26T01:21:26.519Z,47.10
2018-12-26T01:24:11.194Z,43.77
2018-12-26T01:27:02.310Z,46.63
2018-12-26T01:29:42.049Z,45.70
2018-12-26T01:32:21.954Z,46.08
2018-12-26T01:35:04.303Z,44.87
2018-12-26T01:37:48.625Z,43.57
2018-12-26T01:40:28.571Z,46.47
2018-12-26T01:43:12.365Z,41.67
2018-12-26T01:45:54.284Z,46.50
2018-12-26T01:48:36.937Z,44.33
2018-12-26T01:51:18.417Z,44.93
2018-12-26T01:54:03.256Z,48.80
2018-12-26T01:56:44.553Z,44.73
2018-12-26T01:59:26.705Z,50.73
2018-12-26T02:02:09.688Z,46.73
2018-12-26T02:04:52.894Z,49.60
2018-12-26T02:07:37.081Z,48.52
2018-12-26T02:10:18.289Z,52.57
2018-12-26T02:13:01.210Z,49.97
2018-12-26T02:15:43.155Z,50.50
2018-12-26T02:18:28.702Z,46.73
2018-12-26T02:21:20.268Z,50.93
2018-12-26T02:24:03.995Z,46.70
2018-12-26T02:27:42.541Z,42.70
2018-12-26T02:30:29.000Z,51.30
2018-12-26T02:33:08.486Z,57.60
2018-12-26T02:35:51.274Z,56.23
2018-12-26T02:38:31.415Z,54.93
2018-12-26T02:41:11.087Z,56.57
2018-12-26T02:43:51.845Z,54.70
2018-12-26T02:46:33.335Z,58.35
2018-12-26T02:49:25.683Z,57.80
2018-12-26T02:52:08.491Z,56.33
2018-12-26T02:54:49.831Z,56.50
2018-12-26T02:57:35.102Z,56.03
2018-12-26T03:00:16.182Z,56.06
2018-12-26T03:02:59.495Z,57.87
2018-12-26T03:05:42.909Z,57.50
2018-12-26T03:08:21.691Z,54.30
2018-12-26T03:11:04.183Z,58.90
2018-12-26T03:13:44.434Z,53.57
2018-12-26T03:16:26.853Z,58.70
2018-12-26T03:19:08.161Z,59.33
2018-12-26T03:21:50.128Z,59.27
2018-12-26T03:24:34.204Z,64.07
2018-12-26T03:27:17.827Z,60.63
2018-12-26T03:30:03.874Z,56.43
2018-12-26T03:32:46.465Z,67.50
2018-12-26T03:35:26.084Z,64.47
2018-12-26T03:38:05.945Z,66.30
2018-12-26T03:40:44.733Z,67.83
2018-12-26T03:43:24.867Z,65.12
2018-12-26T03:46:04.597Z,60.43
2018-12-26T03:48:42.707Z,73.60
2018-12-26T03:51:22.115Z,71.10
2018-12-26T03:54:04.402Z,66.23
2018-12-26T03:56:44.300Z,73.75
2018-12-26T03:59:28.362Z,73.33
2018-12-26T04:02:08.323Z,64.93
2018-12-26T04:04:49.910Z,69.90
2018-12-26T04:07:33.542Z,72.20
2018-12-26T04:10:13.913Z,81.77
2018-12-26T04:12:57.036Z,72.43
2018-12-26T04:15:37.677Z,77.10
2018-12-26T04:18:18.011Z,77.97
2018-12-26T04:20:57.678Z,78.47
2018-12-26T04:23:37.873Z,81.30
2018-12-26T04:26:20.279Z,73.37
2018-12-26T04:29:00.051Z,84.67
2018-12-26T04:31:40.196Z,81.57
2018-12-26T04:34:20.850Z,81.23
2018-12-26T04:37:00.827Z,79.17
2018-12-26T04:39:46.242Z,86.20
2018-12-26T04:42:26.714Z,88.10
2018-12-26T04:45:12.458Z,83.33
2018-12-26T04:47:55.470Z,86.33
2018-12-26T04:50:35.308Z,86.32
2018-12-26T04:53:20.394Z,89.63
2018-12-26T04:56:02.147Z,91.43
2018-12-26T04:58:46.545Z,78.23
2018-12-26T05:01:30.050Z,78.80
2018-12-26T05:04:09.710Z,77.93
2018-12-26T05:06:51.539Z,77.57
2018-12-26T05:09:31.275Z,77.67
2018-12-26T05:12:11.512Z,81.03
2018-12-26T05:14:52.630Z,77.15
2018-12-26T05:17:32.321Z,75.55
2018-12-26T05:20:11.296Z,73.80
2018-12-26T05:22:53.001Z,78.37
2018-12-26T05:25:31.354Z,68.20
2018-12-26T05:28:13.005Z,75.73
2018-12-26T05:30:53.123Z,72.97
2018-12-26T05:33:33.278Z,74.23
2018-12-26T05:36:12.743Z,79.93
2018-12-26T05:38:53.304Z,74.90
2018-12-26T05:41:33.148Z,74.53
2018-12-26T05:44:16.271Z,78.27
2018-12-26T05:46:55.532Z,78.30
2018-12-26T05:49:34.988Z,85.60
2018-12-26T05:52:17.996Z,74.20
2018-12-26T05:55:04.164Z,76.07
2018-12-26T05:57:43.370Z,83.10
2018-12-26T06:00:23.348Z,77.50
2018-12-26T06:03:00.799Z,82.00
2018-12-26T06:05:40.207Z,78.43
2018-12-26T06:08:22.354Z,75.83
2018-12-26T06:11:01.410Z,76.87
2018-12-26T06:13:40.035Z,80.80
2018-12-26T06:16:19.708Z,78.80
2018-12-26T06:18:59.387Z,87.40
2018-12-26T06:21:44.952Z,82.05
2018-12-26T06:24:25.809Z,82.30
2018-12-26T06:27:04.858Z,91.90
2018-12-26T06:29:44.801Z,76.40
2018-12-26T06:32:28.229Z,82.82
2018-12-26T06:35:15.837Z,86.67
2018-12-26T06:37:53.206Z,86.27
2018-12-26T06:40:32.517Z,78.30
2018-12-26T06:43:15.029Z,69.03
2018-12-26T06:45:57.119Z,75.97
2018-12-26T06:48:42.420Z,93.50
2018-12-26T06:51:22.404Z,78.77
2018-12-26T06:54:01.176Z,84.27
2018-12-26T06:56:44.361Z,97.80
2018-12-26T06:59:24.181Z,82.30
2018-12-26T07:02:04.745Z,79.17
2018-12-26T07:04:43.479Z,86.55
2018-12-26T07:07:23.315Z,70.20
2018-12-26T07:09:58.928Z,72.30
2018-12-26T07:12:36.285Z,69.73
2018-12-26T07:15:18.033Z,76.63
2018-12-26T07:17:55.352Z,62.13
2018-12-26T07:20:30.284Z,68.27
2018-12-26T07:23:04.884Z,83.87
2018-12-26T07:25:47.400Z,66.33
2018-12-26T07:28:30.588Z,75.47
2018-12-26T07:31:12.235Z,78.37
2018-12-26T07:33:50.373Z,70.73
2018-12-26T07:36:32.575Z,91.90
2018-12-26T07:39:12.419Z,89.22
2018-12-26T07:41:50.728Z,92.83
2018-12-26T07:44:30.303Z,82.17
2018-12-26T07:47:10.401Z,89.53
2018-12-26T07:49:54.051Z,88.67
2018-12-26T07:52:30.005Z,103.80
2018-12-26T07:55:17.971Z,95.37
2018-12-26T07:57:57.767Z,95.17
2018-12-26T08:00:38.260Z,94.80
2018-12-26T08:03:27.785Z,99.65
2018-12-26T08:06:15.048Z,99.17
2018-12-26T08:08:55.685Z,96.87
2018-12-26T08:11:33.729Z,95.28
2018-12-26T08:14:23.122Z,107.60
2018-12-26T08:17:15.024Z,80.43
2018-12-26T08:19:55.493Z,101.77
2018-12-26T08:22:35.987Z,102.37
2018-12-26T08:25:23.123Z,123.55
2018-12-26T08:28:06.354Z,102.23
2018-12-26T08:30:44.899Z,108.80
2018-12-26T08:33:34.405Z,110.67
2018-12-26T08:36:13.370Z,117.40
2018-12-26T08:38:51.298Z,122.23
2018-12-26T08:41:32.382Z,116.17
2018-12-26T08:44:14.003Z,131.37
2018-12-26T08:46:54.600Z,134.50
2018-12-26T08:49:38.346Z,113.83
2018-12-26T19:15:31.442Z,101.70
2018-12-26T19:18:11.481Z,95.43
2018-12-26T19:20:54.521Z,104.43
2018-12-26T19:23:48.342Z,97.07
2018-12-26T19:26:35.828Z,103.53
2018-12-26T19:29:18.727Z,107.47
2018-12-26T19:32:06.956Z,113.87
2018-12-26T19:34:49.412Z,109.97
2018-12-26T19:37:31.937Z,116.57
2018-12-26T19:40:12.302Z,119.07
2018-12-26T19:42:54.472Z,115.50
2018-12-26T19:45:32.073Z,110.80
2018-12-26T19:48:10.634Z,106.47
2018-12-26T19:50:52.717Z,104.87
2018-12-26T19:53:30.945Z,95.45
2018-12-26T19:56:07.467Z,91.63
2018-12-26T19:58:50.514Z,84.97
2018-12-26T20:01:33.882Z,83.43
2018-12-26T20:04:10.940Z,84.17
2018-12-26T20:06:51.969Z,68.10
2018-12-26T20:09:40.892Z,68.43
2018-12-26T20:12:18.730Z,72.30
2018-12-26T20:14:58.344Z,72.60
2018-12-26T20:17:43.746Z,66.03
2018-12-26T20:20:32.114Z,61.02
2018-12-26T20:23:26.708Z,68.97
2018-12-26T20:26:06.999Z,65.83
2018-12-26T20:28:47.880Z,60.40
2018-12-26T20:31:26.201Z,62.90
2018-12-26T20:34:08.568Z,62.50
2018-12-26T20:36:53.005Z,61.13
2018-12-26T20:39:32.523Z,61.23
2018-12-26T20:42:07.070Z,60.03
2018-12-26T20:44:45.012Z,60.47
2018-12-26T20:47:40.816Z,58.73
2018-12-26T20:50:20.134Z,61.63
2018-12-26T20:52:57.985Z,63.33
2018-12-26T20:55:39.744Z,58.03
2018-12-26T20:58:16.008Z,63.40
2018-12-26T21:00:53.879Z,64.43
2018-12-26T21:03:32.675Z,63.30
2018-12-26T21:06:09.950Z,59.85
2018-12-26T21:08:50.736Z,60.80
2018-12-26T21:11:27.572Z,64.20
2018-12-26T21:14:03.351Z,66.17
2018-12-26T21:16:43.073Z,64.50
2018-12-26T21:19:33.547Z,62.40
2018-12-26T21:22:09.787Z,67.23
2018-12-26T21:24:44.773Z,66.50
2018-12-26T21:27:23.896Z,67.08
2018-12-26T21:30:00.755Z,68.83
2018-12-26T21:32:40.310Z,70.10
2018-12-26T21:35:20.232Z,71.17
2018-12-26T21:38:00.478Z,74.30
2018-12-26T21:40:39.806Z,72.03
2018-12-26T21:43:36.792Z,71.97
2018-12-26T21:46:16.990Z,72.80
2018-12-26T21:48:53.678Z,75.43
2018-12-26T21:51:39.271Z,72.70
2018-12-26T21:54:22.759Z,79.67
2018-12-26T21:57:02.960Z,79.70
2018-12-26T21:59:44.848Z,78.47
2018-12-26T22:02:29.514Z,83.97
2018-12-26T22:05:11.319Z,82.80
2018-12-26T22:08:02.713Z,88.20
2018-12-26T22:10:44.970Z,88.63
2018-12-26T22:13:39.412Z,88.93
2018-12-26T22:16:21.384Z,95.67
2018-12-26T22:19:00.012Z,92.33
2018-12-26T22:21:43.276Z,93.43
2018-12-26T22:24:42.441Z,90.87
2018-12-26T22:27:35.761Z,92.30
2018-12-26T22:30:16.094Z,89.43
2018-12-26T22:32:58.482Z,95.63
